createdAt,value
2018-11-26T00:00:41.586Z,4.20
2018-11-26T00:01:41.576Z,4.22
2018-11-26T00:02:41.542Z,4.20
2018-11-26T00:03:41.519Z,4.20
2018-11-26T00:04:41.553Z,4.12
2018-11-26T00:05:41.532Z,4.18
2018-11-26T00:06:41.486Z,4.22
2018-11-26T00:07:41.495Z,4.22
2018-11-26T00:08:41.486Z,4.05
2018-11-26T00:09:41.476Z,4.18
2018-11-26T00:10:41.492Z,4.18
2018-11-26T00:11:41.439Z,4.18
2018-11-26T00:12:41.444Z,4.18
2018-11-26T00:13:41.417Z,4.14
2018-11-26T00:14:41.395Z,4.18
2018-11-26T00:15:41.386Z,4.18
2018-11-26T00:16:41.416Z,4.12
2018-11-26T00:17:41.362Z,4.16
2018-11-26T00:18:41.351Z,4.16
2018-11-26T00:19:41.363Z,4.18
2018-11-26T00:20:41.352Z,4.20
2018-11-26T00:21:41.317Z,4.12
2018-11-26T00:22:41.313Z,4.14
2018-11-26T00:23:41.309Z,4.12
2018-11-26T00:24:41.310Z,4.15
2018-11-26T00:25:41.274Z,4.14
2018-11-26T00:26:41.262Z,4.16
2018-11-26T00:27:41.250Z,4.18
2018-11-26T00:28:41.242Z,4.12
2018-11-26T00:29:41.250Z,4.14
2018-11-26T00:30:41.218Z,4.16
2018-11-26T00:31:41.206Z,4.14
2018-11-26T00:32:41.194Z,4.15
2018-11-26T00:33:41.209Z,4.27
2018-11-26T00:34:41.172Z,4.16
2018-11-26T00:35:41.169Z,4.15
2018-11-26T00:36:41.150Z,4.32
2018-11-26T00:37:41.139Z,4.24
2018-11-26T00:38:41.150Z,4.23
2018-11-26T00:39:41.116Z,4.14
2018-11-26T00:40:41.104Z,4.26
2018-11-26T00:41:41.095Z,4.27
2018-11-26T00:42:41.086Z,4.27
2018-11-26T00:43:41.102Z,4.33
2018-11-26T00:44:41.060Z,4.27
2018-11-26T00:45:41.051Z,4.30
2018-11-26T00:46:41.038Z,4.24
2018-11-26T00:47:41.030Z,4.24
2018-11-26T00:48:41.067Z,4.30
2018-11-26T00:49:41.005Z,4.30
2018-11-26T00:50:41.033Z,4.20
2018-11-26T00:51:40.991Z,4.24
2018-11-26T00:52:40.969Z,4.26
2018-11-26T00:53:40.988Z,4.33
2018-11-26T00:54:40.948Z,4.29
2018-11-26T00:55:40.937Z,4.24
2018-11-26T00:56:40.930Z,4.27
2018-11-26T00:57:40.947Z,4.30
2018-11-26T00:58:40.903Z,4.27
2018-11-26T00:59:40.893Z,4.32
2018-11-26T01:00:40.881Z,4.34
2018-11-26T01:01:40.876Z,4.29
2018-11-26T01:02:40.882Z,4.29
2018-11-26T01:03:40.847Z,4.34
2018-11-26T01:04:40.866Z,4.33
2018-11-26T01:05:40.825Z,4.37
2018-11-26T01:06:40.813Z,4.32
2018-11-26T01:07:40.804Z,4.33
2018-11-26T01:08:40.794Z,4.32
2018-11-26T01:09:40.825Z,4.33
2018-11-26T01:10:40.771Z,4.37
2018-11-26T01:11:40.762Z,4.32
2018-11-26T01:12:40.745Z,4.32
2018-11-26T01:13:40.735Z,4.32
2018-11-26T01:14:40.746Z,4.29
2018-11-26T01:15:40.712Z,4.33
2018-11-26T01:16:40.707Z,4.36
2018-11-26T01:17:40.690Z,4.29
2018-11-26T01:18:40.678Z,4.37
2018-11-26T01:19:40.698Z,4.29
2018-11-26T01:20:40.657Z,4.33
2018-11-26T01:21:40.646Z,4.37
2018-11-26T01:22:40.644Z,4.32
2018-11-26T01:23:40.623Z,4.30
2018-11-26T01:24:40.634Z,4.30
2018-11-26T01:25:40.599Z,4.34
2018-11-26T01:26:40.613Z,4.37
2018-11-26T01:27:40.578Z,4.36
2018-11-26T01:28:40.568Z,4.42
2018-11-26T01:29:40.606Z,4.51
2018-11-26T01:30:40.553Z,4.36
2018-11-26T01:31:40.556Z,4.45
2018-11-26T01:32:40.527Z,4.42
2018-11-26T01:33:40.510Z,4.36
2018-11-26T01:34:40.499Z,4.45
2018-11-26T01:35:40.494Z,4.36
2018-11-26T01:36:40.500Z,4.36
2018-11-26T01:37:40.465Z,4.45
2018-11-26T01:38:40.454Z,4.45
2018-11-26T01:39:40.444Z,4.48
2018-11-26T01:40:40.437Z,4.47
2018-11-26T01:41:40.455Z,4.40
2018-11-26T01:42:40.432Z,4.44
2018-11-26T01:43:40.402Z,4.45
2018-11-26T01:44:40.389Z,4.30
2018-11-26T01:45:40.376Z,4.36
2018-11-26T01:46:40.393Z,4.30
2018-11-26T01:47:40.378Z,4.33
2018-11-26T01:48:40.382Z,4.36
2018-11-26T01:49:40.339Z,4.33
2018-11-26T01:50:40.342Z,4.32
2018-11-26T01:51:40.312Z,4.30
2018-11-26T01:52:40.321Z,4.27
2018-11-26T01:53:40.286Z,4.34
2018-11-26T01:54:40.281Z,4.30
2018-11-26T01:55:40.267Z,4.30
2018-11-26T01:56:40.276Z,4.37
2018-11-26T01:57:40.243Z,4.32
2018-11-26T01:58:40.229Z,4.34
2018-11-26T01:59:40.221Z,4.32
2018-11-26T02:00:40.217Z,4.40
2018-11-26T02:01:40.219Z,4.30
2018-11-26T02:02:40.185Z,4.34
2018-11-26T02:03:40.209Z,4.32
2018-11-26T02:04:40.162Z,4.29
2018-11-26T02:05:40.152Z,4.33
2018-11-26T02:06:40.148Z,4.42
2018-11-26T02:07:40.132Z,4.34
2018-11-26T02:08:40.141Z,4.30
2018-11-26T02:09:40.107Z,4.30
2018-11-26T02:10:40.111Z,4.37
2018-11-26T02:11:40.084Z,4.34
2018-11-26T02:12:40.098Z,4.37
2018-11-26T02:13:40.102Z,4.30
2018-11-26T02:14:40.051Z,4.30
2018-11-26T02:15:40.040Z,4.29
2018-11-26T02:16:40.030Z,4.32
2018-11-26T02:17:40.021Z,4.32
2018-11-26T02:18:40.044Z,4.32
2018-11-26T02:19:39.998Z,4.32
2018-11-26T02:20:39.983Z,4.29
2018-11-26T02:21:39.975Z,4.29
2018-11-26T02:22:39.961Z,4.33
2018-11-26T02:23:39.975Z,4.33
2018-11-26T02:24:39.940Z,4.36
2018-11-26T02:25:39.972Z,4.33
2018-11-26T02:26:39.953Z,4.30
2018-11-26T02:27:39.905Z,4.30
2018-11-26T02:28:39.901Z,4.33
2018-11-26T02:29:39.908Z,4.32
2018-11-26T02:30:39.895Z,4.32
2018-11-26T02:31:39.865Z,4.34
2018-11-26T02:32:39.849Z,4.34
2018-11-26T02:33:39.839Z,4.36
2018-11-26T02:34:39.828Z,4.32
2018-11-26T02:35:39.839Z,4.33
2018-11-26T02:36:39.820Z,4.42
2018-11-26T02:37:39.794Z,4.37
2018-11-26T02:38:39.782Z,4.30
2018-11-26T02:39:39.795Z,4.30
2018-11-26T02:40:39.760Z,4.32
2018-11-26T02:41:39.776Z,4.32
2018-11-26T02:42:39.744Z,4.42
2018-11-26T02:43:39.726Z,4.45
2018-11-26T02:44:39.715Z,4.41
2018-11-26T02:45:39.728Z,4.40
2018-11-26T02:46:39.693Z,4.41
2018-11-26T02:47:39.705Z,4.41
2018-11-26T02:48:39.683Z,4.44
2018-11-26T02:49:39.659Z,4.45
2018-11-26T02:50:39.646Z,4.44
2018-11-26T02:51:39.662Z,4.45
2018-11-26T02:52:39.626Z,4.41
2018-11-26T02:53:39.613Z,4.48
2018-11-26T02:54:39.608Z,4.45
2018-11-26T02:55:39.614Z,4.45
2018-11-26T02:56:39.580Z,4.42
2018-11-26T02:57:39.569Z,4.44
2018-11-26T02:58:39.560Z,4.44
2018-11-26T02:59:39.550Z,4.44
2018-11-26T03:00:39.558Z,4.45
2018-11-26T03:01:39.529Z,4.42
2018-11-26T03:02:39.519Z,4.52
2018-11-26T03:03:39.508Z,4.50
2018-11-26T03:04:39.510Z,4.51
2018-11-26T03:05:39.479Z,4.50
2018-11-26T03:06:39.469Z,4.44
2018-11-26T03:07:39.460Z,4.51
2018-11-26T03:08:39.474Z,4.48
2018-11-26T03:09:39.464Z,4.51
2018-11-26T03:10:39.428Z,4.50
2018-11-26T03:11:39.413Z,4.48
2018-11-26T03:12:39.409Z,4.52
2018-11-26T03:13:39.415Z,4.54
2018-11-26T03:14:39.382Z,4.52
2018-11-26T03:15:39.371Z,4.60
2018-11-26T03:16:39.376Z,4.55
2018-11-26T03:17:39.347Z,4.51
2018-11-26T03:18:39.337Z,4.50
2018-11-26T03:19:39.357Z,4.54
2018-11-26T03:20:39.312Z,4.51
2018-11-26T03:21:39.299Z,4.50
2018-11-26T03:22:39.289Z,4.52
2018-11-26T03:23:39.289Z,4.54
2018-11-26T03:24:39.292Z,4.54
2018-11-26T03:25:39.256Z,4.55
2018-11-26T03:26:39.243Z,4.59
2018-11-26T03:27:39.236Z,4.55
2018-11-26T03:28:39.248Z,4.54
2018-11-26T03:29:39.215Z,4.58
2018-11-26T03:30:39.226Z,4.51
2018-11-26T03:31:39.189Z,4.54
2018-11-26T03:32:39.179Z,4.54
2018-11-26T03:33:39.190Z,4.54
2018-11-26T03:34:39.154Z,4.58
2018-11-26T03:35:39.145Z,4.55
2018-11-26T03:36:39.138Z,4.54
2018-11-26T03:37:39.146Z,4.55
2018-11-26T03:38:39.110Z,4.55
2018-11-26T03:39:39.099Z,4.54
2018-11-26T03:40:39.087Z,4.58
2018-11-26T03:41:39.099Z,4.55
2018-11-26T03:42:39.068Z,4.58
2018-11-26T03:43:39.053Z,4.58
2018-11-26T03:44:39.041Z,4.58
2018-11-26T03:45:39.065Z,4.55
2018-11-26T03:46:39.025Z,4.54
2018-11-26T03:47:39.008Z,4.51
2018-11-26T03:48:39.003Z,4.58
2018-11-26T03:49:38.985Z,4.51
2018-11-26T03:50:39.004Z,4.54
2018-11-26T03:51:38.963Z,4.58
2018-11-26T03:52:38.953Z,4.52
2018-11-26T03:53:38.955Z,4.58
2018-11-26T03:54:38.933Z,4.55
2018-11-26T03:55:38.960Z,4.60
2018-11-26T03:56:38.907Z,4.52
2018-11-26T03:57:38.895Z,4.54
2018-11-26T03:58:38.890Z,4.55
2018-11-26T03:59:38.874Z,4.52
2018-11-26T04:00:38.886Z,4.55
2018-11-26T04:01:38.856Z,4.54
2018-11-26T04:02:38.840Z,4.54
2018-11-26T04:03:38.829Z,4.58
2018-11-26T04:04:38.848Z,4.54
2018-11-26T04:05:38.807Z,4.66
2018-11-26T04:06:38.818Z,4.55
2018-11-26T04:07:38.788Z,4.55
2018-11-26T04:08:38.780Z,4.54
2018-11-26T04:09:38.764Z,4.60
2018-11-26T04:10:38.754Z,4.54
2018-11-26T04:11:38.768Z,4.54
2018-11-26T04:12:38.733Z,4.54
2018-11-26T04:13:38.716Z,4.52
2018-11-26T04:14:38.705Z,4.54
2018-11-26T04:15:38.694Z,4.55
2018-11-26T04:16:38.710Z,4.58
2018-11-26T04:17:38.679Z,4.52
2018-11-26T04:18:38.666Z,4.58
2018-11-26T04:19:38.650Z,4.51
2018-11-26T04:20:38.671Z,4.55
2018-11-26T04:21:38.630Z,4.55
2018-11-26T04:22:38.623Z,4.59
2018-11-26T04:23:38.638Z,4.50
2018-11-26T04:24:38.596Z,4.58
2018-11-26T04:25:38.587Z,4.54
2018-11-26T04:26:38.570Z,4.51
2018-11-26T04:27:38.584Z,4.54
2018-11-26T04:28:38.549Z,4.58
2018-11-26T04:29:38.543Z,4.51
2018-11-26T04:30:38.527Z,4.60
2018-11-26T04:31:38.524Z,4.55
2018-11-26T04:32:38.531Z,4.54
2018-11-26T04:33:38.492Z,4.59
2018-11-26T04:34:38.481Z,4.58
2018-11-26T04:35:38.496Z,4.51
2018-11-26T04:36:38.463Z,4.54
2018-11-26T04:37:38.457Z,4.55
2018-11-26T04:38:38.460Z,4.55
2018-11-26T04:39:38.778Z,4.55
2018-11-26T04:40:38.415Z,4.52
2018-11-26T04:41:38.402Z,4.55
2018-11-26T04:42:38.394Z,4.58
2018-11-26T04:43:38.418Z,4.51
2018-11-26T04:44:38.368Z,4.50
2018-11-26T04:45:38.359Z,4.55
2018-11-26T04:46:38.372Z,4.51
2018-11-26T04:47:38.336Z,4.48
2018-11-26T04:48:38.324Z,4.47
2018-11-26T04:49:38.321Z,4.54
2018-11-26T04:50:38.304Z,4.51
2018-11-26T04:51:38.312Z,4.52
2018-11-26T04:52:38.280Z,4.48
2018-11-26T04:53:38.294Z,4.54
2018-11-26T04:54:38.257Z,4.51
2018-11-26T04:55:38.245Z,4.52
2018-11-26T04:56:38.263Z,4.52
2018-11-26T04:57:42.183Z,4.52
2018-11-26T04:58:38.240Z,4.52
2018-11-26T04:59:38.200Z,4.58
2018-11-26T05:00:38.196Z,4.55
2018-11-26T05:01:38.178Z,4.51
2018-11-26T05:02:38.166Z,4.58
2018-11-26T05:03:38.184Z,4.52
2018-11-26T05:04:38.147Z,4.54
2018-11-26T05:05:38.139Z,4.52
2018-11-26T05:06:38.162Z,4.50
2018-11-26T05:07:38.114Z,4.54
2018-11-26T05:08:38.100Z,4.52
2018-11-26T05:09:38.123Z,4.51
2018-11-26T05:10:38.106Z,4.54
2018-11-26T05:11:38.068Z,4.52
2018-11-26T05:12:38.061Z,4.45
2018-11-26T05:13:38.066Z,4.55
2018-11-26T05:14:38.067Z,4.54
2018-11-26T05:15:38.050Z,4.55
2018-11-26T05:16:38.009Z,4.48
2018-11-26T05:17:37.999Z,4.41
2018-11-26T05:18:37.988Z,4.48
2018-11-26T05:19:37.981Z,4.52
2018-11-26T05:20:37.991Z,4.45
2018-11-26T05:21:38.024Z,4.47
2018-11-26T05:22:37.947Z,4.45
2018-11-26T05:23:37.959Z,4.41
2018-11-26T05:24:37.953Z,4.48
2018-11-26T05:25:37.927Z,4.47
2018-11-26T05:26:37.902Z,4.42
2018-11-26T05:27:37.913Z,4.42
2018-11-26T05:28:37.878Z,4.40
2018-11-26T05:29:37.907Z,4.41
2018-11-26T05:30:37.856Z,4.44
2018-11-26T05:31:37.848Z,4.47
2018-11-26T05:32:37.832Z,4.42
2018-11-26T05:33:37.825Z,4.50
2018-11-26T05:34:37.840Z,4.42
2018-11-26T05:35:37.796Z,4.45
2018-11-26T05:36:37.811Z,4.51
2018-11-26T05:37:37.776Z,4.51
2018-11-26T05:38:37.765Z,4.40
2018-11-26T05:39:37.754Z,4.45
2018-11-26T05:40:37.781Z,4.40
2018-11-26T05:41:37.733Z,4.42
2018-11-26T05:42:37.722Z,4.48
2018-11-26T05:43:37.711Z,4.41
2018-11-26T05:44:37.728Z,4.30
2018-11-26T05:45:37.747Z,4.33
2018-11-26T05:46:37.674Z,4.37
2018-11-26T05:47:37.664Z,4.36
2018-11-26T05:48:37.667Z,4.33
2018-11-26T05:49:37.651Z,4.44
2018-11-26T05:50:37.628Z,4.45
2018-11-26T05:51:37.644Z,4.40
2018-11-26T05:52:37.651Z,4.36
2018-11-26T05:53:37.626Z,4.45
2018-11-26T05:54:37.582Z,4.33
2018-11-26T05:55:37.581Z,4.37
2018-11-26T05:56:37.579Z,4.45
2018-11-26T05:57:37.550Z,4.50
2018-11-26T05:58:37.564Z,4.44
2018-11-26T05:59:37.530Z,4.47
2018-11-26T06:00:37.516Z,4.48
2018-11-26T06:01:37.535Z,4.48
2018-11-26T06:02:38.112Z,4.36
2018-11-26T06:03:37.483Z,4.33
2018-11-26T06:04:37.495Z,4.37
2018-11-26T06:05:37.490Z,4.37
2018-11-26T06:06:37.461Z,4.32
2018-11-26T06:07:37.439Z,4.36
2018-11-26T06:08:37.457Z,4.30
2018-11-26T06:09:37.425Z,4.37
2018-11-26T06:10:37.404Z,4.36
2018-11-26T06:11:37.393Z,4.36
2018-11-26T06:12:37.386Z,4.40
2018-11-26T06:13:37.394Z,4.42
2018-11-26T06:14:37.391Z,4.44
2018-11-26T06:15:37.349Z,4.44
2018-11-26T06:16:37.360Z,4.59
2018-11-26T06:17:37.330Z,4.52
2018-11-26T06:18:37.314Z,4.55
2018-11-26T06:19:37.321Z,4.62
2018-11-26T06:20:37.292Z,4.66
2018-11-26T06:21:37.303Z,4.73
2018-11-26T06:22:37.296Z,4.82
2018-11-26T06:23:37.264Z,4.86
2018-11-26T06:24:37.253Z,4.89
2018-11-26T06:25:37.235Z,4.84
2018-11-26T06:26:37.250Z,5.03
2018-11-26T06:27:37.216Z,5.04
2018-11-26T06:28:37.202Z,4.92
2018-11-26T06:29:37.226Z,5.09
2018-11-26T06:30:37.180Z,5.04
2018-11-26T06:31:37.171Z,5.06
2018-11-26T06:32:37.163Z,5.07
2018-11-26T06:33:37.146Z,5.12
2018-11-26T06:34:42.316Z,5.10
2018-11-26T06:35:38.129Z,5.15
2018-11-26T06:36:37.113Z,5.15
2018-11-26T06:37:37.114Z,5.10
2018-11-26T06:38:37.098Z,5.13
2018-11-26T06:39:37.134Z,5.15
2018-11-26T06:40:37.091Z,5.21
2018-11-26T06:41:37.058Z,5.09
2018-11-26T06:42:37.062Z,5.06
2018-11-26T06:43:37.033Z,5.04
2018-11-26T06:44:37.041Z,5.06
2018-11-26T06:45:37.035Z,5.10
2018-11-26T06:46:37.001Z,5.00
2018-11-26T06:47:36.990Z,5.04
2018-11-26T06:48:36.998Z,4.97
2018-11-26T06:49:36.967Z,5.02
2018-11-26T06:50:36.979Z,5.02
2018-11-26T06:51:36.997Z,5.00
2018-11-26T06:52:36.944Z,5.00
2018-11-26T06:53:36.922Z,4.96
2018-11-26T06:54:36.938Z,5.02
2018-11-26T06:55:36.899Z,4.94
2018-11-26T06:56:36.913Z,5.03
2018-11-26T06:57:36.879Z,5.00
2018-11-26T06:58:36.933Z,5.00
2018-11-26T06:59:36.855Z,5.00
2018-11-26T07:00:36.871Z,5.00
2018-11-26T07:01:36.833Z,5.04
2018-11-26T07:02:36.826Z,5.02
2018-11-26T07:03:36.818Z,5.07
2018-11-26T07:04:36.799Z,5.02
2018-11-26T07:05:36.815Z,5.13
2018-11-26T07:06:36.781Z,5.06
2018-11-26T07:07:36.802Z,5.09
2018-11-26T07:08:36.759Z,5.12
2018-11-26T07:09:36.744Z,5.10
2018-11-26T07:10:36.802Z,5.06
2018-11-26T07:11:36.725Z,5.12
2018-11-26T07:12:36.710Z,5.10
2018-11-26T07:13:36.700Z,5.13
2018-11-26T07:14:36.710Z,5.09
2018-11-26T07:15:36.681Z,5.13
2018-11-26T07:16:37.690Z,5.20
2018-11-26T07:17:36.654Z,5.21
2018-11-26T07:18:36.707Z,5.25
2018-11-26T07:19:36.633Z,5.22
2018-11-26T07:20:36.619Z,5.21
2018-11-26T07:21:36.608Z,5.20
2018-11-26T07:22:36.602Z,5.20
2018-11-26T07:23:36.639Z,5.18
2018-11-26T07:24:36.583Z,5.30
2018-11-26T07:25:36.563Z,5.31
2018-11-26T07:26:36.553Z,5.31
2018-11-26T07:27:36.578Z,5.30
2018-11-26T07:28:36.561Z,5.22
2018-11-26T07:29:36.521Z,5.27
2018-11-26T07:30:36.509Z,5.20
2018-11-26T07:31:36.537Z,5.28
2018-11-26T07:32:36.487Z,5.27
2018-11-26T07:33:36.502Z,5.27
2018-11-26T07:34:36.463Z,5.24
2018-11-26T07:35:36.452Z,5.27
2018-11-26T07:36:36.476Z,5.35
2018-11-26T07:37:36.431Z,5.28
2018-11-26T07:38:36.453Z,5.33
2018-11-26T07:39:36.411Z,5.31
2018-11-26T07:40:36.397Z,5.30
2018-11-26T07:41:36.414Z,5.31
2018-11-26T07:42:36.376Z,5.31
2018-11-26T07:43:36.392Z,5.22
2018-11-26T07:44:36.359Z,5.27
2018-11-26T07:45:36.343Z,5.30
2018-11-26T07:46:36.341Z,5.25
2018-11-26T07:47:36.343Z,5.30
2018-11-26T07:48:36.306Z,5.30
2018-11-26T07:49:36.296Z,5.39
2018-11-26T07:50:36.342Z,5.43
2018-11-26T07:51:36.273Z,5.39
2018-11-26T07:52:36.264Z,5.39
2018-11-26T07:53:36.253Z,5.30
2018-11-26T07:54:36.256Z,5.38
2018-11-26T07:55:36.251Z,5.42
2018-11-26T07:56:36.221Z,5.36
2018-11-26T07:57:36.238Z,5.39
2018-11-26T07:58:36.198Z,5.42
2018-11-26T07:59:36.184Z,5.42
2018-11-26T08:00:36.199Z,5.36
2018-11-26T08:01:36.172Z,5.38
2018-11-26T08:02:36.188Z,5.48
2018-11-26T08:03:36.152Z,5.33
2018-11-26T08:04:36.127Z,5.43
2018-11-26T08:05:36.120Z,5.31
2018-11-26T08:06:36.108Z,5.45
2018-11-26T08:07:36.166Z,5.42
2018-11-26T08:08:36.091Z,5.48
2018-11-26T08:09:36.071Z,5.43
2018-11-26T08:10:36.062Z,5.40
2018-11-26T08:11:36.073Z,5.51
2018-11-26T08:12:36.075Z,5.35
2018-11-26T08:13:36.054Z,5.43
2018-11-26T08:14:36.018Z,5.45
2018-11-26T08:15:36.007Z,5.43
2018-11-26T08:16:35.999Z,5.46
2018-11-26T08:17:35.983Z,5.36
2018-11-26T08:18:36.008Z,5.40
2018-11-26T08:19:35.995Z,5.33
2018-11-26T08:20:35.949Z,5.40
2018-11-26T08:21:35.951Z,5.45
2018-11-26T08:22:35.932Z,5.36
2018-11-26T08:23:35.916Z,5.30
2018-11-26T08:24:35.960Z,5.27
2018-11-26T08:25:35.922Z,5.33
2018-11-26T08:26:35.881Z,5.35
2018-11-26T08:27:35.885Z,5.20
2018-11-26T08:28:35.859Z,5.21
2018-11-26T08:29:35.848Z,5.20
2018-11-26T08:30:35.862Z,5.22
2018-11-26T08:31:35.864Z,5.21
2018-11-26T08:32:35.815Z,5.21
2018-11-26T08:33:35.846Z,5.21
2018-11-26T08:34:35.794Z,5.12
2018-11-26T08:35:35.790Z,5.09
2018-11-26T08:36:35.770Z,5.03
2018-11-26T08:37:35.757Z,5.09
2018-11-26T08:38:35.780Z,5.00
2018-11-26T08:39:35.737Z,5.03
2018-11-26T08:40:35.730Z,4.97
2018-11-26T08:41:35.717Z,5.00
2018-11-26T08:42:35.739Z,5.00
2018-11-26T08:43:35.697Z,4.94
2018-11-26T08:44:35.684Z,5.00
2018-11-26T08:45:35.671Z,5.02
2018-11-26T08:46:35.657Z,4.96
2018-11-26T08:47:35.669Z,4.91
2018-11-26T08:48:35.665Z,4.96
2018-11-26T08:49:35.651Z,5.03
2018-11-26T08:50:35.638Z,5.09
2018-11-26T08:51:35.608Z,5.03
2018-11-26T08:52:35.630Z,4.96
2018-11-26T08:53:35.579Z,5.04
2018-11-26T08:54:35.591Z,5.03
2018-11-26T08:55:35.621Z,5.00
2018-11-26T08:56:35.545Z,5.04
2018-11-26T08:57:35.552Z,5.00
2018-11-26T08:58:35.525Z,5.07
2018-11-26T08:59:35.560Z,5.09
2018-11-26T09:00:35.507Z,5.07
2018-11-26T09:01:35.492Z,5.07
2018-11-26T09:02:35.478Z,5.00
2018-11-26T09:03:35.517Z,5.04
2018-11-26T09:04:35.455Z,4.97
2018-11-26T09:05:35.449Z,4.92
2018-11-26T09:06:35.437Z,5.07
2018-11-26T09:07:35.424Z,5.04
2018-11-26T09:08:35.437Z,5.09
2018-11-26T09:09:35.424Z,5.02
2018-11-26T09:10:35.393Z,5.04
2018-11-26T09:11:35.382Z,4.97
2018-11-26T09:12:35.368Z,5.02
2018-11-26T09:13:35.382Z,5.00
2018-11-26T09:14:35.344Z,5.09
2018-11-26T09:15:35.332Z,5.00
2018-11-26T09:16:35.348Z,5.04
2018-11-26T09:17:35.312Z,5.00
2018-11-26T09:18:35.302Z,5.09
2018-11-26T09:19:35.303Z,5.03
2018-11-26T09:20:35.279Z,5.12
2018-11-26T09:21:35.291Z,5.12
2018-11-26T09:22:35.257Z,5.22
2018-11-26T09:23:35.248Z,5.21
2018-11-26T09:24:35.231Z,5.22
2018-11-26T09:25:35.240Z,5.24
2018-11-26T09:26:35.260Z,5.35
2018-11-26T09:27:35.199Z,5.27
2018-11-26T09:28:35.196Z,5.27
2018-11-26T09:29:35.177Z,5.33
2018-11-26T09:30:35.164Z,5.35
2018-11-26T09:31:35.230Z,5.27
2018-11-26T09:32:35.146Z,5.22
2018-11-26T09:33:35.134Z,5.22
2018-11-26T09:34:35.122Z,5.30
2018-11-26T09:35:35.135Z,5.27
2018-11-26T09:36:35.098Z,5.28
2018-11-26T09:37:35.112Z,5.31
2018-11-26T09:38:35.078Z,5.31
2018-11-26T09:39:35.066Z,5.17
2018-11-26T09:40:35.067Z,5.25
2018-11-26T09:41:35.071Z,5.24
2018-11-26T09:42:35.032Z,5.21
2018-11-26T09:43:35.021Z,5.31
2018-11-26T09:44:35.031Z,5.24
2018-11-26T09:45:40.099Z,5.20
2018-11-26T09:46:36.011Z,5.27
2018-11-26T09:47:35.013Z,5.20
2018-11-26T09:48:34.965Z,5.33
2018-11-26T09:49:34.959Z,5.18
2018-11-26T09:50:34.941Z,5.27
2018-11-26T09:51:41.989Z,5.30
2018-11-26T09:52:35.917Z,5.28
2018-11-26T09:53:34.909Z,5.31
2018-11-26T09:54:34.895Z,5.40
2018-11-26T09:55:34.917Z,5.45
2018-11-26T09:56:34.889Z,5.42
2018-11-26T09:57:34.866Z,5.42
2018-11-26T09:58:34.851Z,5.36
2018-11-26T09:59:34.928Z,5.42
2018-11-26T10:00:34.828Z,5.36
2018-11-26T10:01:34.819Z,5.42
2018-11-26T10:02:34.806Z,5.40
2018-11-26T10:03:34.794Z,5.49
2018-11-26T10:04:34.829Z,5.43
2018-11-26T10:05:34.772Z,5.46
2018-11-26T10:06:34.760Z,5.43
2018-11-26T10:07:34.751Z,5.45
2018-11-26T10:08:34.753Z,5.48
2018-11-26T10:09:34.754Z,5.49
2018-11-26T10:10:34.761Z,5.53
2018-11-26T10:11:34.707Z,5.46
2018-11-26T10:12:34.716Z,5.42
2018-11-26T10:13:34.681Z,5.46
2018-11-26T10:14:34.714Z,5.30
2018-11-26T10:15:34.660Z,5.33
2018-11-26T10:16:34.649Z,5.38
2018-11-26T10:17:34.638Z,5.25
2018-11-26T10:18:34.658Z,5.25
2018-11-26T10:19:34.656Z,5.28
2018-11-26T10:20:34.609Z,5.30
2018-11-26T10:21:34.592Z,5.30
2018-11-26T10:22:34.582Z,5.27
2018-11-26T10:23:34.596Z,5.18
2018-11-26T10:24:34.580Z,5.10
2018-11-26T10:25:34.550Z,5.18
2018-11-26T10:26:34.539Z,5.21
2018-11-26T10:27:34.528Z,5.18
2018-11-26T10:28:34.525Z,5.13
2018-11-26T10:29:34.533Z,5.18
2018-11-26T10:30:34.492Z,5.21
2018-11-26T10:31:34.489Z,5.20
2018-11-26T10:32:34.469Z,5.24
2018-11-26T10:33:34.459Z,5.10
2018-11-26T10:34:34.500Z,5.13
2018-11-26T10:35:34.438Z,5.13
2018-11-26T10:36:34.452Z,5.22
2018-11-26T10:37:34.415Z,5.07
2018-11-26T10:38:34.665Z,5.09
2018-11-26T10:39:34.391Z,5.18
2018-11-26T10:40:34.416Z,5.07
2018-11-26T10:41:34.386Z,5.13
2018-11-26T10:42:34.362Z,5.10
2018-11-26T10:43:34.382Z,5.15
2018-11-26T10:44:34.336Z,5.17
2018-11-26T10:45:34.324Z,5.30
2018-11-26T10:46:34.341Z,5.24
2018-11-26T10:47:34.304Z,5.22
2018-11-26T10:48:34.374Z,5.24
2018-11-26T10:49:34.289Z,5.06
2018-11-26T10:50:34.271Z,5.12
2018-11-26T10:51:34.260Z,5.04
2018-11-26T10:52:34.255Z,5.07
2018-11-26T10:53:34.264Z,5.09
2018-11-26T10:54:34.259Z,5.09
2018-11-26T10:55:34.213Z,4.99
2018-11-26T10:56:34.245Z,5.04
2018-11-26T10:57:34.194Z,5.07
2018-11-26T10:58:34.178Z,5.07
2018-11-26T10:59:34.203Z,5.07
2018-11-26T11:00:34.168Z,4.97
2018-11-26T11:01:34.170Z,5.03
2018-11-26T11:02:34.232Z,5.03
2018-11-26T11:03:34.146Z,5.04
2018-11-26T11:04:34.117Z,5.02
2018-11-26T11:05:34.105Z,5.04
2018-11-26T11:06:34.131Z,5.10
2018-11-26T11:07:34.094Z,5.04
2018-11-26T11:08:34.069Z,5.03
2018-11-26T11:09:34.135Z,4.92
2018-11-26T11:10:34.050Z,4.97
2018-11-26T11:11:34.069Z,5.02
2018-11-26T11:12:34.082Z,4.99
2018-11-26T11:13:34.035Z,4.99
2018-11-26T11:14:33.999Z,4.94
2018-11-26T11:15:33.990Z,5.02
2018-11-26T11:16:34.001Z,5.03
2018-11-26T11:17:33.981Z,5.02
2018-11-26T11:18:33.987Z,5.12
2018-11-26T11:19:33.947Z,5.13
2018-11-26T11:20:33.933Z,5.20
2018-11-26T11:21:33.944Z,5.10
2018-11-26T11:22:33.910Z,5.06
2018-11-26T11:23:33.928Z,5.09
2018-11-26T11:24:33.914Z,5.06
2018-11-26T11:25:33.877Z,5.02
2018-11-26T11:26:33.866Z,5.04
2018-11-26T11:27:33.878Z,5.00
2018-11-26T11:28:33.843Z,4.91
2018-11-26T11:29:33.837Z,4.89
2018-11-26T11:30:33.849Z,4.82
2018-11-26T11:31:33.835Z,4.73
2018-11-26T11:32:33.799Z,4.78
2018-11-26T11:33:33.789Z,4.78
2018-11-26T11:34:33.802Z,4.77
2018-11-26T11:35:33.795Z,4.75
2018-11-26T11:36:33.753Z,4.73
2018-11-26T11:37:33.777Z,4.66
2018-11-26T11:38:33.729Z,4.60
2018-11-26T11:39:33.718Z,4.72
2018-11-26T11:40:33.774Z,4.72
2018-11-26T11:41:34.588Z,4.66
2018-11-26T11:42:33.686Z,4.63
2018-11-26T11:43:33.689Z,4.55
2018-11-26T11:44:33.689Z,4.54
2018-11-26T11:45:33.653Z,4.58
2018-11-26T11:46:33.645Z,4.59
2018-11-26T11:47:33.658Z,4.44
2018-11-26T11:48:33.640Z,4.48
2018-11-26T11:49:33.606Z,4.47
2018-11-26T11:50:33.623Z,4.55
2018-11-26T11:51:33.587Z,4.51
2018-11-26T11:52:33.573Z,4.33
2018-11-26T11:53:33.566Z,4.36
2018-11-26T11:54:33.557Z,4.40
2018-11-26T11:55:33.568Z,4.40
2018-11-26T11:56:33.531Z,4.42
2018-11-26T11:57:33.528Z,4.45
2018-11-26T11:58:33.527Z,4.29
2018-11-26T11:59:33.495Z,4.26
2018-11-26T12:00:33.485Z,4.30
2018-11-26T12:01:33.472Z,4.32
2018-11-26T12:02:33.485Z,4.27
2018-11-26T12:03:33.484Z,4.23
2018-11-26T12:04:33.463Z,4.14
2018-11-26T12:05:33.428Z,4.12
2018-11-26T12:06:33.439Z,4.18
2018-11-26T12:07:33.410Z,4.12
2018-11-26T12:08:33.395Z,4.08
2018-11-26T12:09:33.408Z,4.23
2018-11-26T12:10:33.431Z,4.18
2018-11-26T12:11:33.360Z,4.16
2018-11-26T12:12:33.351Z,4.15
2018-11-26T12:13:33.343Z,4.09
2018-11-26T12:14:33.350Z,4.08
2018-11-26T12:15:33.334Z,4.06
2018-11-26T12:16:33.321Z,4.02
2018-11-26T12:17:33.320Z,4.04
2018-11-26T12:18:33.282Z,3.97
2018-11-26T12:19:33.271Z,4.00
2018-11-26T12:20:33.287Z,3.93
2018-11-26T12:21:33.248Z,3.91
2018-11-26T12:22:33.237Z,3.97
2018-11-26T12:23:33.284Z,3.90
2018-11-26T12:24:33.256Z,3.91
2018-11-26T12:25:33.203Z,3.79
2018-11-26T12:26:33.190Z,3.83
2018-11-26T12:27:33.179Z,3.87
2018-11-26T12:28:33.169Z,3.80
2018-11-26T12:29:33.201Z,3.83
2018-11-26T12:30:33.147Z,3.79
2018-11-26T12:31:33.135Z,3.80
2018-11-26T12:32:33.124Z,3.73
2018-11-26T12:33:33.172Z,3.86
2018-11-26T12:34:33.101Z,3.87
2018-11-26T12:35:33.091Z,3.83
2018-11-26T12:36:33.110Z,3.88
2018-11-26T12:37:33.068Z,3.76
2018-11-26T12:38:33.080Z,3.98
2018-11-26T12:39:33.046Z,3.91
2018-11-26T12:40:33.034Z,3.94
2018-11-26T12:41:33.024Z,3.98
2018-11-26T12:42:33.021Z,3.90
2018-11-26T12:43:33.052Z,3.88
2018-11-26T12:44:32.996Z,3.84
2018-11-26T12:45:32.978Z,3.88
2018-11-26T12:46:32.994Z,3.93
2018-11-26T12:47:32.979Z,3.86
2018-11-26T12:48:32.944Z,4.02
2018-11-26T12:49:32.933Z,3.76
2018-11-26T12:50:32.994Z,3.70
2018-11-26T12:51:32.928Z,3.68
2018-11-26T12:52:32.900Z,3.66
2018-11-26T12:53:32.889Z,3.68
2018-11-26T12:54:32.904Z,3.61
2018-11-26T12:55:32.901Z,3.75
2018-11-26T12:56:32.855Z,3.73
2018-11-26T12:57:32.864Z,3.69
2018-11-26T12:58:32.832Z,3.65
2018-11-26T12:59:32.822Z,3.57
2018-11-26T13:00:32.843Z,3.57
2018-11-26T13:01:32.829Z,3.54
2018-11-26T13:02:32.795Z,3.47
2018-11-26T13:03:32.778Z,3.48
2018-11-26T13:04:32.786Z,3.52
2018-11-26T13:05:32.778Z,3.62
2018-11-26T13:06:32.763Z,3.58
2018-11-26T13:07:32.756Z,3.62
2018-11-26T13:08:32.725Z,3.60
2018-11-26T13:09:32.737Z,3.43
2018-11-26T13:10:32.710Z,3.45
2018-11-26T13:11:32.699Z,3.47
2018-11-26T13:12:32.760Z,3.42
2018-11-26T13:13:32.695Z,3.54
2018-11-26T13:14:32.730Z,3.60
2018-11-26T13:15:32.666Z,3.60
2018-11-26T13:16:32.632Z,3.66
2018-11-26T13:17:32.644Z,3.58
2018-11-26T13:18:32.608Z,3.50